createdAt,value
2022-08-04T00:00:08.678Z,1.48
2022-08-04T00:02:47.804Z,1.70
2022-08-04T00:05:39.877Z,1.83
2022-08-04T00:08:18.607Z,1.52
2022-08-04T00:10:54.971Z,1.80
2022-08-04T00:13:26.436Z,1.98
2022-08-04T00:16:13.943Z,1.75
2022-08-04T00:18:44.855Z,1.83
2022-08-04T00:21:14.939Z,1.67
2022-08-04T00:24:11.773Z,1.92
2022-08-04T00:26:31.260Z,1.75
2022-08-04T00:28:58.122Z,1.67
2022-08-04T00:31:53.746Z,1.60
2022-08-04T00:34:15.023Z,2.20
2022-08-04T00:36:44.453Z,1.90
2022-08-04T00:39:16.340Z,1.60
2022-08-04T00:42:20.974Z,2.05
2022-08-04T00:45:02.975Z,2.03
2022-08-04T00:48:10.956Z,1.70
2022-08-04T00:51:03.805Z,1.67
2022-08-04T00:54:00.818Z,2.33
2022-08-04T00:56:55.152Z,1.80
2022-08-04T00:59:33.931Z,2.08
2022-08-04T01:02:11.640Z,1.70
2022-08-04T01:04:57.378Z,2.40
2022-08-04T01:08:00.636Z,1.83
2022-08-04T01:10:36.389Z,1.90
2022-08-04T01:13:02.936Z,2.00
2022-08-04T01:16:01.051Z,2.20
2022-08-04T01:18:36.132Z,2.20
2022-08-04T01:21:24.544Z,2.00
2022-08-04T01:24:15.306Z,2.17
2022-08-04T01:26:57.334Z,2.30
2022-08-04T01:29:49.305Z,2.00
2022-08-04T01:32:37.829Z,2.40
2022-08-04T01:35:07.872Z,2.90
2022-08-04T01:37:49.986Z,2.20
2022-08-04T01:40:18.181Z,2.50
2022-08-04T01:42:46.245Z,2.38
2022-08-04T01:45:14.551Z,2.38
2022-08-04T01:47:49.507Z,2.38
2022-08-04T01:50:16.218Z,2.45
2022-08-04T01:52:47.577Z,2.00
2022-08-04T01:55:18.279Z,2.22
2022-08-04T01:57:47.468Z,2.10
2022-08-04T02:00:17.530Z,2.67
2022-08-04T02:02:45.887Z,2.30
2022-08-04T02:05:16.415Z,2.30
2022-08-04T02:07:56.910Z,2.78
2022-08-04T02:10:32.643Z,2.28
2022-08-04T02:13:10.792Z,2.60
2022-08-04T02:15:58.838Z,2.33
2022-08-04T02:18:32.825Z,2.38
2022-08-04T02:21:02.168Z,2.58
2022-08-04T02:23:37.984Z,2.85
2022-08-04T02:26:07.080Z,2.47
2022-08-04T02:29:32.128Z,2.58
2022-08-04T02:31:49.808Z,2.85
2022-08-04T02:34:40.801Z,2.85
2022-08-04T02:37:09.962Z,2.70
2022-08-04T02:39:48.836Z,2.70
2022-08-04T02:42:16.910Z,2.88
2022-08-04T02:44:43.681Z,2.92
2022-08-04T02:47:12.013Z,3.13
2022-08-04T02:49:42.288Z,2.50
2022-08-04T02:52:12.685Z,2.92
2022-08-04T02:54:40.905Z,2.78
2022-08-04T02:57:09.902Z,3.15
2022-08-04T02:59:57.522Z,2.78
2022-08-04T03:02:34.737Z,2.85
2022-08-04T03:05:07.934Z,2.70
2022-08-04T03:08:01.636Z,2.88
2022-08-04T03:10:49.238Z,2.95
2022-08-04T03:13:37.065Z,2.60
2022-08-04T03:16:38.447Z,2.50
2022-08-04T03:19:32.804Z,2.97
2022-08-04T03:22:23.490Z,3.03
2022-08-04T03:25:24.294Z,3.65
2022-08-04T03:28:22.018Z,3.42
2022-08-04T03:31:17.708Z,3.20
2022-08-04T03:33:56.372Z,3.50
2022-08-04T03:36:44.528Z,3.25
2022-08-04T03:39:43.213Z,2.80
2022-08-04T03:42:24.816Z,3.90
2022-08-04T03:45:24.125Z,3.38
2022-08-04T03:48:15.842Z,3.92
2022-08-04T03:51:35.594Z,3.20
2022-08-04T03:54:33.656Z,3.50
2022-08-04T03:57:42.887Z,3.95
2022-08-04T04:00:14.856Z,4.60
2022-08-04T04:03:11.568Z,3.60
2022-08-04T04:06:15.015Z,4.03
2022-08-04T04:09:03.214Z,3.42
2022-08-04T04:11:57.154Z,3.72
2022-08-04T04:14:54.535Z,3.50
2022-08-04T04:17:39.467Z,3.00
2022-08-04T04:20:27.972Z,3.40
2022-08-04T04:23:16.639Z,3.80
2022-08-04T04:25:58.088Z,4.18
2022-08-04T04:28:44.625Z,4.70
2022-08-04T04:31:38.214Z,5.28
2022-08-04T04:34:16.786Z,3.63
2022-08-04T04:37:11.893Z,5.93
2022-08-04T04:39:53.718Z,3.83
2022-08-04T04:42:38.395Z,3.10
2022-08-04T04:45:32.036Z,3.55
2022-08-04T04:48:14.065Z,3.30
2022-08-04T04:51:08.775Z,3.17
2022-08-04T04:54:00.015Z,3.20
2022-08-04T04:56:43.828Z,4.65
2022-08-04T04:59:13.140Z,4.22
2022-08-04T05:02:10.790Z,4.68
2022-08-04T05:04:37.319Z,3.38
2022-08-04T05:07:07.776Z,3.80
2022-08-04T05:10:03.419Z,3.90
2022-08-04T05:14:33.169Z,4.22
2022-08-04T05:15:35.836Z,4.18
2022-08-04T05:18:06.593Z,3.95
2022-08-04T05:20:43.318Z,5.78
2022-08-04T05:23:19.749Z,5.25
2022-08-04T05:26:10.332Z,3.22
2022-08-04T05:28:41.392Z,3.40
2022-08-04T05:31:18.953Z,3.08
2022-08-04T05:33:58.701Z,10.73
2022-08-04T05:36:41.256Z,3.60
2022-08-04T05:39:13.470Z,3.00
2022-08-04T05:41:45.871Z,3.38
2022-08-04T05:44:19.863Z,3.35
2022-08-04T05:46:53.679Z,3.22
2022-08-04T05:49:23.313Z,3.13
2022-08-04T05:51:51.190Z,3.00
2022-08-04T05:54:21.104Z,2.70
2022-08-04T05:56:48.738Z,3.53
2022-08-04T05:59:16.033Z,2.88
2022-08-04T06:01:55.877Z,3.10
2022-08-04T06:04:27.355Z,2.47
2022-08-04T06:06:54.582Z,2.60
2022-08-04T06:09:21.321Z,3.28
2022-08-04T06:12:00.773Z,2.80
2022-08-04T06:14:39.405Z,3.08
2022-08-04T06:19:56.151Z,2.90
2022-08-04T06:20:17.505Z,2.70
2022-08-04T06:22:45.998Z,5.05
2022-08-04T06:25:18.005Z,2.70
2022-08-04T06:27:45.130Z,2.63
2022-08-04T06:30:14.671Z,2.55
2022-08-04T06:32:48.725Z,2.47
2022-08-04T06:35:19.748Z,2.65
2022-08-04T06:37:47.854Z,2.85
2022-08-04T06:40:29.715Z,2.80
2022-08-04T06:43:00.878Z,2.67
2022-08-04T06:45:28.489Z,2.70
2022-08-04T06:47:56.230Z,2.40
2022-08-04T06:51:24.573Z,2.15
2022-08-04T06:53:11.575Z,2.63
2022-08-04T06:55:39.200Z,2.40
2022-08-04T06:58:07.471Z,2.42
2022-08-04T07:00:36.385Z,2.25
2022-08-04T07:03:03.932Z,2.35
2022-08-04T07:05:31.558Z,2.53
2022-08-04T07:07:59.175Z,2.30
2022-08-04T07:10:28.185Z,2.42
2022-08-04T07:12:59.507Z,2.60
2022-08-04T07:15:26.941Z,3.40
2022-08-04T07:17:56.980Z,2.40
2022-08-04T07:20:34.087Z,2.50
2022-08-04T07:23:05.404Z,2.85
2022-08-04T07:26:00.876Z,2.45
2022-08-04T07:28:22.048Z,2.35
2022-08-04T07:30:49.620Z,2.45
2022-08-04T07:33:19.984Z,2.80
2022-08-04T07:36:09.922Z,2.50
2022-08-04T07:38:37.533Z,2.30
2022-08-04T07:41:35.486Z,2.60
2022-08-04T07:43:54.844Z,2.90
2022-08-04T07:46:21.567Z,2.60
2022-08-04T07:48:48.546Z,3.05
2022-08-04T07:51:16.521Z,2.65
2022-08-04T07:53:54.442Z,3.55
2022-08-04T07:56:22.765Z,2.70
2022-08-04T07:58:50.408Z,2.55
2022-08-04T08:01:17.490Z,2.72
2022-08-04T08:03:44.360Z,2.70
2022-08-04T08:06:22.515Z,2.40
2022-08-04T08:09:02.183Z,2.70
2022-08-04T08:12:38.044Z,2.67
2022-08-04T08:14:29.199Z,2.83
2022-08-04T08:16:55.825Z,2.70
2022-08-04T08:19:22.434Z,2.67
2022-08-04T08:21:59.077Z,2.85
2022-08-04T08:24:30.750Z,2.92
2022-08-04T08:26:58.321Z,2.85
2022-08-04T08:29:26.629Z,2.40
2022-08-04T08:31:57.138Z,2.78
2022-08-04T08:34:29.026Z,2.40
2022-08-04T08:37:24.858Z,2.60
2022-08-04T08:39:58.227Z,2.67
2022-08-04T08:42:48.058Z,2.35
2022-08-04T08:45:37.968Z,2.10
2022-08-04T08:48:35.841Z,2.30
2022-08-04T08:51:31.783Z,2.53
2022-08-04T08:54:04.180Z,2.47
2022-08-04T08:56:43.153Z,2.42
2022-08-04T08:59:15.803Z,4.85
2022-08-04T09:02:08.994Z,2.90
2022-08-04T09:04:51.098Z,2.40
2022-08-04T09:07:31.385Z,2.47
2022-08-04T09:10:12.218Z,2.78
2022-08-04T09:13:05.671Z,2.95
2022-08-04T09:15:51.161Z,1.98
2022-08-04T09:18:26.961Z,2.38
2022-08-04T09:21:04.596Z,2.17
2022-08-04T09:23:46.808Z,2.50
2022-08-04T09:26:32.263Z,2.33
2022-08-04T09:29:31.006Z,2.57
2022-08-04T09:32:26.764Z,4.18
2022-08-04T09:35:08.457Z,2.75
2022-08-04T09:37:45.839Z,2.53
2022-08-04T09:40:53.845Z,2.38
2022-08-04T09:44:42.016Z,2.38
2022-08-04T09:46:37.001Z,2.67
2022-08-04T09:49:23.700Z,3.10
2022-08-04T09:51:57.634Z,2.10
2022-08-04T09:54:41.039Z,2.53
2022-08-04T09:57:17.904Z,2.10
2022-08-04T09:59:57.337Z,2.13
2022-08-04T10:02:25.258Z,2.00
2022-08-04T10:04:55.113Z,2.17
2022-08-04T10:08:16.178Z,2.97
2022-08-04T10:11:07.788Z,2.60
2022-08-04T10:13:46.126Z,2.30
2022-08-04T10:16:21.415Z,2.60
2022-08-04T10:19:16.813Z,2.47
2022-08-04T10:22:29.500Z,2.25
2022-08-04T10:25:04.432Z,2.10
2022-08-04T10:28:02.169Z,2.05
2022-08-04T10:30:33.259Z,2.10
2022-08-04T10:33:15.312Z,2.03
2022-08-04T10:35:49.538Z,1.33
2022-08-04T10:38:26.915Z,1.38
2022-08-04T10:41:03.879Z,2.03
2022-08-04T10:43:45.120Z,2.15
2022-08-04T10:46:31.643Z,1.95
2022-08-04T10:49:02.721Z,1.80
2022-08-04T10:51:58.057Z,1.63
2022-08-04T10:54:48.222Z,2.10
2022-08-04T10:57:23.034Z,2.60
2022-08-04T11:00:16.438Z,1.92
2022-08-04T11:03:07.190Z,1.38
2022-08-04T11:05:53.901Z,1.05
2022-08-04T11:08:45.271Z,1.70
2022-08-04T11:11:24.482Z,2.00
2022-08-04T11:13:59.097Z,1.70
2022-08-04T11:16:36.838Z,1.50
2022-08-04T11:19:42.819Z,1.85
2022-08-04T11:22:23.348Z,1.65
2022-08-04T11:25:02.311Z,1.70
2022-08-04T11:27:52.008Z,1.20
2022-08-04T11:30:19.527Z,1.80
2022-08-04T11:33:02.046Z,2.42
2022-08-04T11:35:42.353Z,2.28
2022-08-04T11:38:22.079Z,2.10
2022-08-04T11:41:02.828Z,2.25
2022-08-04T11:44:00.887Z,2.15
2022-08-04T11:46:50.699Z,2.00
2022-08-04T11:49:32.542Z,2.38
2022-08-04T11:52:21.892Z,2.40
2022-08-04T11:54:52.630Z,2.45
2022-08-04T11:57:21.441Z,2.17
2022-08-04T11:59:49.517Z,2.45
2022-08-04T12:02:29.701Z,1.80
2022-08-04T12:05:01.512Z,1.98
2022-08-04T12:07:41.308Z,1.85
2022-08-04T12:10:41.312Z,2.20
2022-08-04T12:13:18.626Z,1.80
2022-08-04T12:16:10.802Z,2.00
2022-08-04T12:18:50.022Z,1.77
2022-08-04T12:21:45.016Z,2.50
2022-08-04T12:24:38.974Z,1.75
2022-08-04T12:27:30.360Z,1.83
2022-08-04T12:30:59.111Z,2.35
2022-08-04T12:33:18.067Z,1.73
2022-08-04T12:36:10.990Z,1.90
2022-08-04T12:38:48.536Z,2.22
2022-08-04T12:43:47.337Z,1.92
2022-08-04T12:46:33.001Z,2.10
2022-08-04T12:49:02.760Z,3.27
2022-08-04T12:52:05.976Z,2.05
2022-08-04T12:54:29.048Z,2.17
2022-08-04T12:56:59.290Z,3.63
2022-08-04T12:59:26.347Z,2.05
2022-08-04T13:02:08.435Z,1.80
2022-08-04T13:04:42.680Z,1.75
2022-08-04T13:07:21.364Z,1.90
2022-08-04T13:09:48.679Z,1.70
2022-08-04T13:12:23.062Z,1.48
2022-08-04T13:15:08.756Z,1.85
2022-08-04T13:18:00.974Z,1.63
2022-08-04T13:20:33.688Z,1.40
2022-08-04T13:23:21.758Z,2.47
2022-08-04T13:26:45.147Z,2.60
2022-08-04T13:28:46.790Z,2.08
2022-08-04T13:31:23.817Z,1.90
2022-08-04T13:33:53.408Z,2.10
2022-08-04T13:36:25.290Z,2.40
2022-08-04T13:38:57.859Z,3.40
2022-08-04T13:41:30.924Z,2.08
2022-08-04T13:44:17.925Z,2.50
2022-08-04T13:46:51.150Z,2.25
2022-08-04T13:52:10.822Z,2.20
2022-08-04T13:54:46.004Z,2.35
2022-08-04T13:57:31.240Z,2.40
2022-08-04T14:00:03.053Z,2.80
2022-08-04T14:02:49.120Z,2.00
2022-08-04T14:05:31.377Z,2.10
2022-08-04T14:08:12.626Z,1.88
2022-08-04T14:10:40.436Z,2.20
2022-08-04T14:13:07.612Z,1.65
2022-08-04T14:16:01.432Z,1.98
2022-08-04T14:18:32.705Z,2.08
2022-08-04T14:21:03.072Z,1.75
2022-08-04T14:23:47.640Z,2.10
2022-08-04T14:26:17.349Z,3.00
2022-08-04T14:29:25.204Z,1.98
2022-08-04T14:31:31.243Z,2.60
2022-08-04T14:34:03.894Z,2.22
2022-08-04T14:37:04.639Z,2.00
2022-08-04T14:39:41.901Z,1.98
2022-08-04T14:42:55.184Z,2.20
2022-08-04T14:45:38.944Z,2.05
2022-08-04T14:48:21.970Z,1.67
2022-08-04T14:50:49.876Z,1.80
2022-08-04T14:53:29.352Z,2.33
2022-08-04T14:55:58.861Z,2.88
2022-08-04T14:58:37.659Z,1.83
2022-08-04T15:01:10.562Z,1.88
2022-08-04T15:03:50.840Z,2.20
2022-08-04T15:06:22.815Z,2.25
2022-08-04T15:08:53.392Z,1.92
2022-08-04T15:11:22.974Z,2.40
2022-08-04T15:13:50.663Z,2.83
2022-08-04T15:21:16.209Z,2.25
2022-08-04T15:23:42.755Z,2.55
2022-08-04T15:26:17.789Z,2.38
2022-08-04T15:28:50.173Z,2.53
2022-08-04T15:32:05.696Z,6.55
2022-08-04T15:34:07.400Z,4.07
2022-08-04T15:36:56.120Z,3.28
2022-08-04T15:39:36.108Z,3.03
2022-08-04T15:42:35.971Z,2.95
2022-08-04T15:45:14.797Z,2.97
2022-08-04T15:47:41.500Z,3.58
2022-08-04T15:50:28.134Z,3.00
2022-08-04T15:53:10.012Z,2.45
2022-08-04T15:55:41.377Z,2.95
2022-08-04T15:58:13.936Z,2.47
2022-08-04T16:00:54.233Z,2.80
2022-08-04T16:03:58.474Z,2.72
2022-08-04T16:06:22.808Z,2.85
2022-08-04T16:08:52.596Z,2.50
2022-08-04T16:11:31.456Z,4.00
2022-08-04T16:14:01.667Z,3.28
2022-08-04T16:16:38.460Z,4.70
2022-08-04T16:19:08.571Z,3.58
2022-08-04T16:21:46.897Z,2.83
2022-08-04T16:24:45.479Z,2.50
2022-08-04T16:27:13.234Z,3.20
2022-08-04T16:29:43.968Z,2.90
2022-08-04T16:32:22.503Z,3.70
2022-08-04T16:35:04.549Z,4.60
2022-08-04T16:37:38.878Z,4.53
2022-08-04T16:40:35.744Z,5.32
2022-08-04T16:43:09.407Z,4.78
2022-08-04T16:45:41.848Z,5.18
2022-08-04T16:48:09.296Z,6.85
2022-08-04T16:50:49.423Z,5.15
2022-08-04T16:53:57.835Z,3.75
2022-08-04T16:56:06.539Z,3.80
2022-08-04T17:01:32.327Z,3.10
2022-08-04T17:04:04.793Z,3.55
2022-08-04T17:06:39.844Z,2.90
2022-08-04T17:09:10.719Z,3.38
2022-08-04T17:11:37.288Z,2.50
2022-08-04T17:14:05.885Z,5.28
2022-08-04T17:16:34.980Z,2.80
2022-08-04T17:19:02.086Z,2.55
2022-08-04T17:24:12.599Z,7.85
2022-08-04T17:26:45.450Z,2.83
2022-08-04T17:29:21.678Z,5.43
2022-08-04T17:31:48.395Z,5.47
2022-08-04T17:34:19.245Z,4.30
2022-08-04T17:36:47.701Z,3.55
2022-08-04T17:39:20.075Z,3.10
2022-08-04T17:41:49.546Z,2.80
2022-08-04T17:44:16.626Z,3.22
2022-08-04T17:46:48.209Z,2.55
2022-08-04T17:49:18.550Z,3.03
2022-08-04T17:52:05.410Z,3.00
2022-08-04T17:54:36.936Z,3.50
2022-08-04T17:57:21.036Z,3.20
2022-08-04T17:59:57.549Z,2.67
2022-08-04T18:02:32.736Z,3.60
2022-08-04T18:05:07.992Z,2.60
2022-08-04T18:08:37.794Z,2.95
2022-08-04T18:10:55.657Z,16.63
2022-08-04T18:13:27.898Z,10.93
2022-08-04T18:16:02.887Z,9.15
2022-08-04T18:18:30.030Z,4.05
2022-08-04T18:23:32.031Z,8.63
2022-08-04T18:26:02.382Z,6.57
2022-08-04T18:28:33.154Z,7.38
2022-08-04T18:31:00.822Z,10.93
2022-08-04T18:33:40.454Z,6.20
2022-08-04T18:36:33.657Z,3.13
2022-08-04T18:38:59.365Z,4.60
2022-08-04T18:42:01.520Z,3.75
2022-08-04T18:44:28.809Z,3.78
2022-08-04T18:47:22.184Z,3.97
2022-08-04T18:51:01.667Z,4.15
2022-08-04T18:52:32.409Z,4.63
2022-08-04T18:55:01.850Z,5.28
2022-08-04T18:57:58.757Z,5.57
2022-08-04T19:00:19.815Z,5.95
2022-08-04T19:02:46.812Z,4.15
2022-08-04T19:05:17.381Z,3.67
2022-08-04T19:08:01.886Z,5.70
2022-08-04T19:10:31.685Z,3.95
2022-08-04T19:12:58.742Z,5.40
2022-08-04T19:15:34.110Z,4.25
2022-08-04T19:18:01.495Z,6.47
2022-08-04T19:20:29.604Z,3.97
2022-08-04T19:24:28.760Z,3.65
2022-08-04T19:26:01.957Z,4.82
2022-08-04T19:28:34.111Z,3.20
2022-08-04T19:31:02.336Z,5.07
2022-08-04T19:33:55.454Z,3.72
2022-08-04T19:36:17.243Z,4.35
2022-08-04T19:38:44.646Z,3.67
2022-08-04T19:41:14.294Z,4.07
2022-08-04T19:43:43.635Z,3.10
2022-08-04T19:46:12.073Z,2.83
2022-08-04T19:48:39.489Z,4.72
2022-08-04T19:51:06.065Z,4.10
2022-08-04T19:58:52.382Z,6.07
2022-08-04T20:01:33.007Z,4.22
2022-08-04T20:04:08.519Z,3.67
2022-08-04T20:06:37.213Z,3.85
2022-08-04T20:09:04.079Z,4.83
2022-08-04T20:11:50.752Z,3.85
2022-08-04T20:14:17.927Z,3.28
2022-08-04T20:16:46.605Z,3.13
2022-08-04T20:19:14.178Z,3.65
2022-08-04T20:21:55.219Z,3.88
